Bendfeld, Germany

7:02 PM CET on December 06, 2016 (GMT +0100)
Knüll | | Change Station

Elev 137 ft 54.32 °N, 10.38 °E | Updated 6 minutes ago

Mostly Cloudy
Mostly Cloudy
41.2 °F
Feels Like 41 °F
N
1.2
Wind Variable Wind from West
Gusts 3.1 mph

Today
High -- | Low -- °F
--% Chance of Precip.
Yesterday
High -- | Low -- °F
Precip. -- in
Pressure 30.48 in
Visibility 6.2 miles
Clouds Mostly Cloudy 3100 ft
Windchill 41 °F
Dew Point 41 °F
Humidity 98%
Rainfall 0.05 in
Snow Depth Not available.
8:23 AM 3:55 PM
Waxing Crescent, 43% visible
METAR ETNH 061720Z 17002KT 9999 BKN031 04/02 Q1032 BLU BLU TEMPO WHT
Pressure 30.48 in
Visibility 6.2 miles
Clouds Mostly Cloudy 3100 ft
Windchill 41 °F
Dew Point 41 °F
Humidity 98%
Rainfall 0.05 in
Snow Depth Not available.
8:23 AM 3:55 PM
Waxing Crescent, 43% visible
METAR ETNH 061720Z 17002KT 9999 BKN031 04/02 Q1032 BLU BLU TEMPO WHT

10-Day Weather Forecast

×

Almanac

Astronomy

Dec. 06, 2016 Rise Set
Actual Time
Civil Twilight
Nautical Twilight
Astronomical Twilight
Moon
Length of Visible Light
Length of Day
Tomorrow will be .
, % of the Moon is Illuminated

Today's Extremes

Country Highs Country Lows

Community

WunderPhotos

Upload Photos

1,955,986 photos uploaded!

WunderBlog® & News

Nearby

Air Quality

  Air Quality AQ Index Pollutant
Not available.

Snow Depth

Station Depth Elevation

Earthquake Activity

City Distance Mag. Time & Date
Minimum magnitude displayed is 2.5.

Coastal Water Temperatures

Place Temperature

Stations

Nearby Weather Stations

Station Location Temp. Windchill Dew Point Humidity Wind Precip. Elev Updated Type